createdAt,value
2022-08-22T00:02:26.788Z,1.48
2022-08-22T00:07:46.199Z,1.23
2022-08-22T00:12:46.680Z,1.48
2022-08-22T00:17:56.097Z,1.27
2022-08-22T00:22:54.710Z,2.00
2022-08-22T00:27:56.869Z,1.80
2022-08-22T00:32:59.605Z,1.58
2022-08-22T00:38:10.484Z,1.13
2022-08-22T00:43:02.368Z,1.10
2022-08-22T00:48:06.327Z,1.30
2022-08-22T00:53:22.450Z,0.90
2022-08-22T00:58:33.998Z,0.70
2022-08-22T01:03:48.519Z,0.50
2022-08-22T01:08:58.790Z,0.60
2022-08-22T01:14:00.447Z,0.50
2022-08-22T01:19:00.376Z,0.50
2022-08-22T01:24:30.494Z,0.50
2022-08-22T01:30:02.874Z,0.70
2022-08-22T01:35:26.601Z,0.60
2022-08-22T01:40:53.613Z,0.45
2022-08-22T01:45:55.002Z,0.40
2022-08-22T01:50:58.036Z,0.40
2022-08-22T01:55:57.779Z,0.43
2022-08-22T02:01:24.891Z,0.40
2022-08-22T02:06:25.068Z,0.60
2022-08-22T02:11:58.780Z,0.60
2022-08-22T02:17:10.871Z,0.50
2022-08-22T02:22:24.822Z,0.70
2022-08-22T02:27:49.818Z,0.65
2022-08-22T02:32:41.406Z,0.60
2022-08-22T02:37:38.345Z,0.73
2022-08-22T02:43:14.950Z,1.00
2022-08-22T02:48:35.835Z,1.35
2022-08-22T02:53:37.242Z,2.00
2022-08-22T02:58:47.856Z,2.30
2022-08-22T03:03:42.801Z,2.28
2022-08-22T03:08:36.123Z,2.85
2022-08-22T03:14:06.109Z,2.45
2022-08-22T03:19:18.414Z,2.70
2022-08-22T03:24:13.135Z,2.42
2022-08-22T03:29:11.899Z,2.65
2022-08-22T03:34:23.899Z,3.10
2022-08-22T03:39:35.546Z,2.28
2022-08-22T03:44:50.788Z,2.42
2022-08-22T03:50:12.948Z,1.92
2022-08-22T03:56:00.237Z,1.77
2022-08-22T04:01:03.657Z,1.60
2022-08-22T04:05:58.360Z,1.77
2022-08-22T04:10:51.717Z,1.85
2022-08-22T04:16:05.139Z,1.90
2022-08-22T04:20:56.805Z,2.35
2022-08-22T04:25:59.490Z,1.42
2022-08-22T04:31:12.895Z,1.55
2022-08-22T04:36:26.521Z,1.77
2022-08-22T04:41:25.711Z,1.50
2022-08-22T04:46:32.114Z,1.83
2022-08-22T04:51:41.173Z,2.08
2022-08-22T04:56:50.845Z,0.98
2022-08-22T05:02:10.645Z,1.17
2022-08-22T05:07:11.342Z,1.08
2022-08-22T05:12:12.053Z,0.98
2022-08-22T05:17:08.045Z,0.90
2022-08-22T05:22:01.297Z,1.20
2022-08-22T05:26:57.385Z,2.22
2022-08-22T05:32:03.716Z,1.85
2022-08-22T05:36:57.370Z,2.83
2022-08-22T05:41:50.392Z,2.42
2022-08-22T05:46:50.118Z,3.45
2022-08-22T05:51:53.640Z,2.40
2022-08-22T05:56:52.137Z,1.98
2022-08-22T06:01:58.683Z,2.08
2022-08-22T06:06:57.633Z,2.25
2022-08-22T06:12:21.792Z,2.67
2022-08-22T06:17:20.421Z,3.97
2022-08-22T06:22:25.919Z,5.07
2022-08-22T06:27:26.320Z,4.80
2022-08-22T06:32:59.564Z,4.80
2022-08-22T06:37:48.251Z,4.80
2022-08-22T06:42:51.989Z,5.10
2022-08-22T06:47:53.540Z,5.13
2022-08-22T06:52:59.680Z,4.95
2022-08-22T06:57:58.922Z,3.83
2022-08-22T07:03:01.182Z,3.65
2022-08-22T07:07:53.181Z,3.15
2022-08-22T07:12:49.328Z,2.70
2022-08-22T07:17:51.839Z,2.50
2022-08-22T07:23:01.035Z,1.77
2022-08-22T07:28:35.837Z,1.73
2022-08-22T07:33:49.863Z,2.03
2022-08-22T07:38:48.263Z,1.92
2022-08-22T07:43:48.700Z,1.55
2022-08-22T07:49:08.143Z,1.17
2022-08-22T07:54:05.421Z,1.77
2022-08-22T07:59:07.995Z,1.40
2022-08-22T08:04:07.733Z,1.85
2022-08-22T08:08:59.773Z,1.48
2022-08-22T08:13:59.049Z,1.50
2022-08-22T08:18:55.289Z,1.30
2022-08-22T08:23:47.373Z,0.93
2022-08-22T08:28:47.658Z,1.00
2022-08-22T08:33:42.087Z,1.52
2022-08-22T08:38:45.502Z,1.10
2022-08-22T08:44:26.040Z,1.00
2022-08-22T08:49:33.727Z,1.30
2022-08-22T08:55:23.907Z,1.20
2022-08-22T09:00:21.237Z,0.90
2022-08-22T09:05:34.222Z,1.08
2022-08-22T09:11:28.489Z,1.40
2022-08-22T09:16:58.134Z,0.80
2022-08-22T09:22:22.881Z,0.88
2022-08-22T09:27:38.342Z,0.90
2022-08-22T09:32:54.718Z,0.50
2022-08-22T09:38:05.514Z,0.98
2022-08-22T09:43:50.282Z,0.60
2022-08-22T09:49:20.278Z,0.60
2022-08-22T09:54:31.376Z,0.70
2022-08-22T09:59:51.029Z,0.70
2022-08-22T10:04:58.166Z,0.90
2022-08-22T10:10:01.487Z,0.68
2022-08-22T10:15:19.421Z,0.50
2022-08-22T10:20:32.281Z,0.70
2022-08-22T10:25:25.725Z,0.57
2022-08-22T10:30:29.752Z,0.60
2022-08-22T10:35:27.355Z,0.70
2022-08-22T10:40:39.353Z,0.73
2022-08-22T10:46:06.904Z,0.60
2022-08-22T10:51:24.888Z,0.60
2022-08-22T10:56:34.354Z,0.40
2022-08-22T11:01:41.548Z,0.45
2022-08-22T11:06:41.017Z,0.40
2022-08-22T11:12:01.958Z,0.60
2022-08-22T11:17:28.015Z,0.65
2022-08-22T11:22:55.598Z,0.45
2022-08-22T11:27:56.675Z,0.45
2022-08-22T11:32:59.519Z,0.30
2022-08-22T11:38:16.235Z,0.30
2022-08-22T11:43:26.165Z,0.37
2022-08-22T11:48:24.962Z,0.40
2022-08-22T11:53:40.082Z,0.35
2022-08-22T11:58:49.610Z,0.30
2022-08-22T12:03:58.493Z,0.28
2022-08-22T12:09:09.575Z,0.20
2022-08-22T12:14:06.965Z,0.20
2022-08-22T12:19:11.286Z,0.20
2022-08-22T12:24:31.900Z,0.13
2022-08-22T12:29:52.961Z,0.20
2022-08-22T12:34:51.661Z,0.20
2022-08-22T12:40:13.221Z,0.20
2022-08-22T12:45:16.487Z,0.20
2022-08-22T12:50:28.121Z,0.30
2022-08-22T12:55:57.156Z,0.20
2022-08-22T13:00:50.296Z,0.22
2022-08-22T13:05:50.409Z,0.30
2022-08-22T13:10:59.529Z,0.20
2022-08-22T13:16:06.576Z,0.30
2022-08-22T13:21:04.516Z,0.20
2022-08-22T13:26:07.904Z,0.20
2022-08-22T13:31:02.810Z,0.20
2022-08-22T13:36:00.298Z,0.32
2022-08-22T13:40:53.166Z,0.40
2022-08-22T13:45:56.326Z,0.50
2022-08-22T13:51:11.305Z,0.40
2022-08-22T13:56:15.648Z,0.50
2022-08-22T14:01:35.740Z,0.50
2022-08-22T14:06:49.046Z,0.40
2022-08-22T14:11:47.525Z,0.50
2022-08-22T14:16:47.350Z,0.60
2022-08-22T14:21:55.916Z,0.60
2022-08-22T14:27:26.856Z,0.60
2022-08-22T14:37:22.266Z,0.85
2022-08-22T14:42:23.902Z,0.90
2022-08-22T14:47:55.217Z,1.00
2022-08-22T14:53:02.601Z,0.60
2022-08-22T14:58:00.276Z,0.60
2022-08-22T15:03:09.516Z,1.02
2022-08-22T15:08:01.433Z,1.35
2022-08-22T15:13:00.156Z,0.80
2022-08-22T15:17:51.832Z,0.80
2022-08-22T15:22:46.178Z,0.90
2022-08-22T15:27:50.066Z,0.80
2022-08-22T15:32:44.691Z,0.75
2022-08-22T15:38:04.134Z,0.85
2022-08-22T15:42:58.212Z,0.80
2022-08-22T15:47:53.192Z,0.68
2022-08-22T15:53:18.740Z,0.65
2022-08-22T15:58:21.018Z,0.80
2022-08-22T16:03:23.436Z,0.70
2022-08-22T16:08:23.658Z,0.90
2022-08-22T16:13:27.609Z,1.30
2022-08-22T16:18:37.387Z,1.10
2022-08-22T16:23:49.812Z,0.98
2022-08-22T16:29:00.657Z,1.40
2022-08-22T16:33:52.401Z,1.30
2022-08-22T16:38:48.861Z,1.30
2022-08-22T16:43:54.908Z,0.93
2022-08-22T16:48:46.965Z,1.50
2022-08-22T16:53:38.970Z,1.35
2022-08-22T16:58:57.035Z,1.50
2022-08-22T17:04:11.830Z,1.52
2022-08-22T17:09:22.938Z,1.33
2022-08-22T17:14:20.173Z,2.15
2022-08-22T17:19:34.853Z,2.50
2022-08-22T17:24:46.424Z,1.98
2022-08-22T17:29:56.899Z,1.88
2022-08-22T17:35:03.946Z,1.52
2022-08-22T17:40:19.386Z,1.47
2022-08-22T17:45:10.990Z,1.20
2022-08-22T17:50:31.719Z,1.35
2022-08-22T17:55:29.114Z,1.00
2022-08-22T18:05:27.786Z,1.25
2022-08-22T18:10:30.783Z,1.02
2022-08-22T18:15:38.927Z,1.35
2022-08-22T18:20:33.973Z,1.65
2022-08-22T18:25:46.108Z,1.50
2022-08-22T18:31:02.555Z,1.40
2022-08-22T18:36:07.694Z,1.25
2022-08-22T18:41:10.938Z,1.20
2022-08-22T18:46:25.059Z,1.20
2022-08-22T18:51:23.866Z,2.08
2022-08-22T18:56:41.994Z,1.08
2022-08-22T19:02:14.754Z,1.27
2022-08-22T19:07:31.438Z,1.00
2022-08-22T19:12:33.150Z,1.13
2022-08-22T19:17:46.651Z,1.23
2022-08-22T19:22:51.359Z,1.35
2022-08-22T19:28:04.863Z,1.25
2022-08-22T19:33:04.843Z,1.17
2022-08-22T19:37:59.823Z,1.58
2022-08-22T19:42:53.339Z,1.38
2022-08-22T19:47:54.949Z,1.35
2022-08-22T19:53:08.193Z,1.42
2022-08-22T19:58:32.555Z,1.83
2022-08-22T20:03:58.238Z,1.90
2022-08-22T20:09:02.802Z,2.05
2022-08-22T20:14:12.493Z,2.17
2022-08-22T20:19:09.244Z,1.60
2022-08-22T20:24:07.397Z,1.52
2022-08-22T20:29:03.029Z,1.88
2022-08-22T20:34:03.961Z,2.08
2022-08-22T20:39:01.812Z,2.03
2022-08-22T20:44:06.400Z,1.85
2022-08-22T20:49:00.758Z,3.30
2022-08-22T20:53:56.445Z,2.85
2022-08-22T20:58:49.051Z,2.67
2022-08-22T21:03:47.511Z,3.13
2022-08-22T21:08:40.257Z,2.60
2022-08-22T21:13:36.789Z,2.15
2022-08-22T21:18:30.507Z,2.53
2022-08-22T21:23:22.306Z,1.63
2022-08-22T21:28:37.053Z,1.65
2022-08-22T21:33:28.811Z,1.83
2022-08-22T21:38:20.587Z,1.60
2022-08-22T21:43:27.677Z,1.42
2022-08-22T21:48:40.258Z,2.00
2022-08-22T21:53:32.145Z,2.70
2022-08-22T21:58:35.490Z,2.20
2022-08-22T22:03:37.217Z,1.85
2022-08-22T22:08:31.513Z,1.33
2022-08-22T22:13:24.646Z,2.00
2022-08-22T22:18:24.614Z,1.23
2022-08-22T22:23:16.958Z,0.68
2022-08-22T22:28:13.910Z,0.40
2022-08-22T22:33:05.732Z,0.40
2022-08-22T22:37:57.883Z,0.40
2022-08-22T22:42:50.319Z,0.40
2022-08-22T22:47:42.278Z,0.40
2022-08-22T22:52:34.770Z,0.40
2022-08-22T22:57:32.619Z,0.50
2022-08-22T23:02:34.395Z,0.40
2022-08-22T23:07:26.787Z,0.60
2022-08-22T23:12:18.667Z,0.40
2022-08-22T23:17:14.790Z,0.50
2022-08-22T23:22:08.393Z,0.30
2022-08-22T23:27:00.443Z,0.30
2022-08-22T23:31:55.592Z,0.30
2022-08-22T23:36:47.736Z,0.30
2022-08-22T23:41:40.625Z,0.30
2022-08-22T23:46:32.526Z,0.30
2022-08-22T23:51:27.283Z,0.20
2022-08-22T23:56:27.298Z,0.30
